sensor_id;sensor_type;location;lat;lon;timestamp;P1;durP1;ratioP1;P2;durP2;ratioP2
2480;SDS011;57396;48.742;9.128;2023-04-15T00:02:12;26.37;;;9.50;;
2480;SDS011;57396;48.742;9.128;2023-04-15T00:04:39;18.33;;;7.73;;
2480;SDS011;57396;48.742;9.128;2023-04-15T00:07:04;19.20;;;8.93;;
2480;SDS011;57396;48.742;9.128;2023-04-15T00:09:30;25.33;;;10.40;;
2480;SDS011;57396;48.742;9.128;2023-04-15T00:11:55;19.60;;;6.90;;
2480;SDS011;57396;48.742;9.128;2023-04-15T00:14:21;13.23;;;6.63;;
2480;SDS011;57396;48.742;9.128;2023-04-15T00:16:47;13.20;;;7.57;;
2480;SDS011;57396;48.742;9.128;2023-04-15T00:19:19;13.43;;;6.13;;
2480;SDS011;57396;48.742;9.128;2023-04-15T00:21:44;15.90;;;6.67;;
2480;SDS011;57396;48.742;9.128;2023-04-15T00:24:10;16.60;;;7.00;;
2480;SDS011;57396;48.742;9.128;2023-04-15T00:26:35;12.70;;;5.93;;
2480;SDS011;57396;48.742;9.128;2023-04-15T00:29:01;15.57;;;5.30;;
2480;SDS011;57396;48.742;9.128;2023-04-15T00:31:27;14.63;;;5.40;;
2480;SDS011;57396;48.742;9.128;2023-04-15T00:33:52;12.03;;;6.00;;
2480;SDS011;57396;48.742;9.128;2023-04-15T00:36:17;11.70;;;5.90;;
2480;SDS011;57396;48.742;9.128;2023-04-15T00:38:43;13.23;;;6.10;;
2480;SDS011;57396;48.742;9.128;2023-04-15T00:41:08;17.70;;;6.37;;
2480;SDS011;57396;48.742;9.128;2023-04-15T00:43:35;9.60;;;5.47;;
2480;SDS011;57396;48.742;9.128;2023-04-15T00:46:00;12.20;;;4.80;;
2480;SDS011;57396;48.742;9.128;2023-04-15T00:48:28;7.60;;;4.30;;
2480;SDS011;57396;48.742;9.128;2023-04-15T00:50:54;6.90;;;4.30;;
2480;SDS011;57396;48.742;9.128;2023-04-15T00:53:20;6.30;;;4.40;;
2480;SDS011;57396;48.742;9.128;2023-04-15T00:55:45;9.80;;;4.23;;
2480;SDS011;57396;48.742;9.128;2023-04-15T00:58:11;11.33;;;5.00;;
2480;SDS011;57396;48.742;9.128;2023-04-15T01:00:36;6.40;;;4.20;;
2480;SDS011;57396;48.742;9.128;2023-04-15T01:03:02;8.80;;;4.87;;
2480;SDS011;57396;48.742;9.128;2023-04-15T01:05:27;12.07;;;5.50;;
2480;SDS011;57396;48.742;9.128;2023-04-15T01:07:54;13.60;;;7.50;;
2480;SDS011;57396;48.742;9.128;2023-04-15T01:10:20;17.77;;;8.30;;
2480;SDS011;57396;48.742;9.128;2023-04-15T01:12:46;16.27;;;7.87;;
2480;SDS011;57396;48.742;9.128;2023-04-15T01:15:12;16.27;;;8.07;;
2480;SDS011;57396;48.742;9.128;2023-04-15T01:17:38;18.77;;;7.53;;
2480;SDS011;57396;48.742;9.128;2023-04-15T01:20:03;11.60;;;6.50;;
2480;SDS011;57396;48.742;9.128;2023-04-15T01:22:30;19.73;;;5.90;;
2480;SDS011;57396;48.742;9.128;2023-04-15T01:25:00;8.20;;;5.17;;
2480;SDS011;57396;48.742;9.128;2023-04-15T01:27:30;5.03;;;3.97;;
2480;SDS011;57396;48.742;9.128;2023-04-15T01:29:56;6.80;;;4.13;;
2480;SDS011;57396;48.742;9.128;2023-04-15T01:32:22;6.20;;;3.83;;
2480;SDS011;57396;48.742;9.128;2023-04-15T01:34:48;5.73;;;4.00;;
2480;SDS011;57396;48.742;9.128;2023-04-15T01:37:13;10.90;;;4.20;;
2480;SDS011;57396;48.742;9.128;2023-04-15T01:39:39;6.67;;;4.07;;
2480;SDS011;57396;48.742;9.128;2023-04-15T01:42:05;7.80;;;3.50;;
2480;SDS011;57396;48.742;9.128;2023-04-15T01:44:31;5.37;;;3.93;;
2480;SDS011;57396;48.742;9.128;2023-04-15T01:46:56;8.33;;;3.87;;
2480;SDS011;57396;48.742;9.128;2023-04-15T01:49:22;8.33;;;3.90;;
2480;SDS011;57396;48.742;9.128;2023-04-15T01:51:48;8.30;;;4.30;;
2480;SDS011;57396;48.742;9.128;2023-04-15T01:54:13;6.43;;;3.80;;
2480;SDS011;57396;48.742;9.128;2023-04-15T01:56:38;5.73;;;3.80;;
2480;SDS011;57396;48.742;9.128;2023-04-15T01:59:04;6.40;;;4.10;;
2480;SDS011;57396;48.742;9.128;2023-04-15T02:01:30;6.60;;;4.17;;
2480;SDS011;57396;48.742;9.128;2023-04-15T02:03:55;8.53;;;4.00;;
2480;SDS011;57396;48.742;9.128;2023-04-15T02:06:21;5.63;;;3.73;;
2480;SDS011;57396;48.742;9.128;2023-04-15T02:08:46;9.47;;;4.00;;
2480;SDS011;57396;48.742;9.128;2023-04-15T02:11:12;8.73;;;4.07;;
2480;SDS011;57396;48.742;9.128;2023-04-15T02:13:38;7.30;;;3.10;;
2480;SDS011;57396;48.742;9.128;2023-04-15T02:16:03;7.63;;;3.87;;
2480;SDS011;57396;48.742;9.128;2023-04-15T02:18:29;7.80;;;3.87;;
2480;SDS011;57396;48.742;9.128;2023-04-15T02:20:54;7.70;;;4.27;;
2480;SDS011;57396;48.742;9.128;2023-04-15T02:23:22;6.40;;;3.30;;
2480;SDS011;57396;48.742;9.128;2023-04-15T02:25:47;4.00;;;3.30;;
2480;SDS011;57396;48.742;9.128;2023-04-15T02:28:13;6.03;;;2.90;;
2480;SDS011;57396;48.742;9.128;2023-04-15T02:30:38;9.17;;;4.40;;
2480;SDS011;57396;48.742;9.128;2023-04-15T02:33:05;6.23;;;3.57;;
2480;SDS011;57396;48.742;9.128;2023-04-15T02:35:31;9.67;;;4.00;;
2480;SDS011;57396;48.742;9.128;2023-04-15T02:37:56;4.60;;;3.43;;
2480;SDS011;57396;48.742;9.128;2023-04-15T02:40:22;6.80;;;3.43;;
2480;SDS011;57396;48.742;9.128;2023-04-15T02:42:47;5.47;;;3.70;;
2480;SDS011;57396;48.742;9.128;2023-04-15T02:45:13;7.27;;;3.90;;
2480;SDS011;57396;48.742;9.128;2023-04-15T02:47:38;7.20;;;3.80;;
2480;SDS011;57396;48.742;9.128;2023-04-15T02:50:09;8.80;;;3.90;;
2480;SDS011;57396;48.742;9.128;2023-04-15T02:52:38;7.97;;;3.97;;
2480;SDS011;57396;48.742;9.128;2023-04-15T02:55:05;10.10;;;3.60;;
2480;SDS011;57396;48.742;9.128;2023-04-15T02:57:31;5.67;;;3.27;;
2480;SDS011;57396;48.742;9.128;2023-04-15T02:59:56;11.43;;;3.50;;
2480;SDS011;57396;48.742;9.128;2023-04-15T03:02:22;8.30;;;3.10;;
2480;SDS011;57396;48.742;9.128;2023-04-15T03:04:48;8.73;;;4.23;;
2480;SDS011;57396;48.742;9.128;2023-04-15T03:07:13;6.53;;;3.47;;
2480;SDS011;57396;48.742;9.128;2023-04-15T03:09:39;12.27;;;4.07;;
2480;SDS011;57396;48.742;9.128;2023-04-15T03:12:05;4.90;;;2.60;;
2480;SDS011;57396;48.742;9.128;2023-04-15T03:14:31;5.70;;;3.23;;
2480;SDS011;57396;48.742;9.128;2023-04-15T03:16:56;5.97;;;3.10;;
2480;SDS011;57396;48.742;9.128;2023-04-15T03:19:23;4.53;;;2.97;;
2480;SDS011;57396;48.742;9.128;2023-04-15T03:21:49;13.20;;;3.73;;
2480;SDS011;57396;48.742;9.128;2023-04-15T03:24:14;4.13;;;2.60;;
2480;SDS011;57396;48.742;9.128;2023-04-15T03:26:40;5.60;;;3.57;;
2480;SDS011;57396;48.742;9.128;2023-04-15T03:29:05;5.80;;;2.83;;
2480;SDS011;57396;48.742;9.128;2023-04-15T03:31:31;3.27;;;2.80;;
2480;SDS011;57396;48.742;9.128;2023-04-15T03:33:56;8.63;;;2.90;;
2480;SDS011;57396;48.742;9.128;2023-04-15T03:36:21;6.70;;;3.50;;
2480;SDS011;57396;48.742;9.128;2023-04-15T03:38:47;6.60;;;3.20;;
2480;SDS011;57396;48.742;9.128;2023-04-15T03:41:13;5.80;;;3.20;;
2480;SDS011;57396;48.742;9.128;2023-04-15T03:43:39;6.80;;;3.67;;
2480;SDS011;57396;48.742;9.128;2023-04-15T03:46:04;4.07;;;3.20;;
2480;SDS011;57396;48.742;9.128;2023-04-15T03:48:30;7.33;;;3.33;;
2480;SDS011;57396;48.742;9.128;2023-04-15T03:50:55;7.07;;;3.30;;
2480;SDS011;57396;48.742;9.128;2023-04-15T03:53:21;5.03;;;3.40;;
2480;SDS011;57396;48.742;9.128;2023-04-15T03:55:46;5.53;;;3.93;;
2480;SDS011;57396;48.742;9.128;2023-04-15T03:58:12;7.90;;;3.30;;
2480;SDS011;57396;48.742;9.128;2023-04-15T04:00:40;5.10;;;3.50;;
2480;SDS011;57396;48.742;9.128;2023-04-15T04:03:06;8.33;;;3.67;;
2480;SDS011;57396;48.742;9.128;2023-04-15T04:05:32;5.33;;;3.50;;
2480;SDS011;57396;48.742;9.128;2023-04-15T04:07:57;4.90;;;3.00;;
2480;SDS011;57396;48.742;9.128;2023-04-15T04:10:23;6.33;;;3.73;;
2480;SDS011;57396;48.742;9.128;2023-04-15T04:12:48;7.30;;;3.23;;
2480;SDS011;57396;48.742;9.128;2023-04-15T04:15:14;4.50;;;3.40;;
2480;SDS011;57396;48.742;9.128;2023-04-15T04:17:40;4.03;;;3.10;;
2480;SDS011;57396;48.742;9.128;2023-04-15T04:20:05;6.73;;;3.13;;
2480;SDS011;57396;48.742;9.128;2023-04-15T04:22:35;5.23;;;3.20;;
2480;SDS011;57396;48.742;9.128;2023-04-15T04:25:02;6.40;;;3.17;;
2480;SDS011;57396;48.742;9.128;2023-04-15T04:27:27;5.10;;;3.10;;
2480;SDS011;57396;48.742;9.128;2023-04-15T04:29:53;7.03;;;3.60;;
2480;SDS011;57396;48.742;9.128;2023-04-15T04:32:18;9.80;;;3.53;;
2480;SDS011;57396;48.742;9.128;2023-04-15T04:34:43;10.87;;;3.33;;
2480;SDS011;57396;48.742;9.128;2023-04-15T04:37:09;5.60;;;3.60;;
2480;SDS011;57396;48.742;9.128;2023-04-15T04:39:35;7.03;;;3.77;;
2480;SDS011;57396;48.742;9.128;2023-04-15T04:42:00;5.87;;;3.40;;
2480;SDS011;57396;48.742;9.128;2023-04-15T04:44:26;6.67;;;4.00;;
2480;SDS011;57396;48.742;9.128;2023-04-15T04:46:51;5.47;;;3.40;;
2480;SDS011;57396;48.742;9.128;2023-04-15T04:49:17;7.00;;;3.33;;
2480;SDS011;57396;48.742;9.128;2023-04-15T04:51:42;10.50;;;4.70;;
2480;SDS011;57396;48.742;9.128;2023-04-15T04:54:08;8.20;;;3.63;;
2480;SDS011;57396;48.742;9.128;2023-04-15T04:56:33;5.60;;;3.70;;
2480;SDS011;57396;48.742;9.128;2023-04-15T04:58:59;5.00;;;3.77;;
2480;SDS011;57396;48.742;9.128;2023-04-15T05:01:24;6.40;;;3.40;;
2480;SDS011;57396;48.742;9.128;2023-04-15T05:03:51;5.50;;;3.50;;
2480;SDS011;57396;48.742;9.128;2023-04-15T05:06:17;6.60;;;4.70;;
2480;SDS011;57396;48.742;9.128;2023-04-15T05:08:42;15.17;;;8.20;;
2480;SDS011;57396;48.742;9.128;2023-04-15T05:11:08;9.07;;;5.37;;
2480;SDS011;57396;48.742;9.128;2023-04-15T05:13:33;6.50;;;4.77;;
2480;SDS011;57396;48.742;9.128;2023-04-15T05:16:02;10.40;;;5.97;;
2480;SDS011;57396;48.742;9.128;2023-04-15T05:18:31;8.57;;;5.60;;
2480;SDS011;57396;48.742;9.128;2023-04-15T05:20:57;7.90;;;4.80;;
2480;SDS011;57396;48.742;9.128;2023-04-15T05:23:23;7.90;;;4.77;;
2480;SDS011;57396;48.742;9.128;2023-04-15T05:25:48;19.57;;;9.50;;
2480;SDS011;57396;48.742;9.128;2023-04-15T05:28:14;25.43;;;10.90;;
2480;SDS011;57396;48.742;9.128;2023-04-15T05:30:39;19.70;;;8.53;;
2480;SDS011;57396;48.742;9.128;2023-04-15T05:33:05;8.40;;;5.97;;
2480;SDS011;57396;48.742;9.128;2023-04-15T05:35:30;9.53;;;5.83;;
2480;SDS011;57396;48.742;9.128;2023-04-15T05:37:56;7.23;;;4.60;;
2480;SDS011;57396;48.742;9.128;2023-04-15T05:40:21;5.07;;;4.00;;
2480;SDS011;57396;48.742;9.128;2023-04-15T05:42:47;9.10;;;4.30;;
2480;SDS011;57396;48.742;9.128;2023-04-15T05:45:13;8.13;;;3.80;;
2480;SDS011;57396;48.742;9.128;2023-04-15T05:47:38;8.67;;;4.00;;
2480;SDS011;57396;48.742;9.128;2023-04-15T05:50:04;5.77;;;3.80;;
2480;SDS011;57396;48.742;9.128;2023-04-15T05:52:30;8.43;;;4.00;;
2480;SDS011;57396;48.742;9.128;2023-04-15T05:54:56;9.40;;;4.13;;
2480;SDS011;57396;48.742;9.128;2023-04-15T05:57:21;6.97;;;4.60;;
2480;SDS011;57396;48.742;9.128;2023-04-15T05:59:47;10.50;;;4.53;;
2480;SDS011;57396;48.742;9.128;2023-04-15T06:02:13;6.10;;;4.30;;
2480;SDS011;57396;48.742;9.128;2023-04-15T06:04:38;9.03;;;4.70;;
2480;SDS011;57396;48.742;9.128;2023-04-15T06:07:04;9.80;;;4.60;;
2480;SDS011;57396;48.742;9.128;2023-04-15T06:09:29;9.73;;;4.90;;
2480;SDS011;57396;48.742;9.128;2023-04-15T06:11:55;6.27;;;3.97;;
2480;SDS011;57396;48.742;9.128;2023-04-15T06:14:21;9.57;;;4.67;;
2480;SDS011;57396;48.742;9.128;2023-04-15T06:16:47;6.27;;;4.13;;
2480;SDS011;57396;48.742;9.128;2023-04-15T06:19:12;12.07;;;4.73;;
2480;SDS011;57396;48.742;9.128;2023-04-15T06:21:38;13.73;;;5.07;;
2480;SDS011;57396;48.742;9.128;2023-04-15T06:24:04;8.77;;;5.27;;
2480;SDS011;57396;48.742;9.128;2023-04-15T06:26:29;7.10;;;4.37;;
2480;SDS011;57396;48.742;9.128;2023-04-15T06:28:55;12.23;;;4.60;;
2480;SDS011;57396;48.742;9.128;2023-04-15T06:31:21;11.37;;;5.77;;
2480;SDS011;57396;48.742;9.128;2023-04-15T06:33:46;10.70;;;5.90;;
2480;SDS011;57396;48.742;9.128;2023-04-15T06:36:12;11.23;;;5.17;;
2480;SDS011;57396;48.742;9.128;2023-04-15T06:38:37;9.30;;;4.53;;
2480;SDS011;57396;48.742;9.128;2023-04-15T06:41:03;6.80;;;4.70;;
2480;SDS011;57396;48.742;9.128;2023-04-15T06:43:29;8.83;;;4.93;;
2480;SDS011;57396;48.742;9.128;2023-04-15T06:45:54;7.63;;;4.77;;
2480;SDS011;57396;48.742;9.128;2023-04-15T06:48:20;9.17;;;5.50;;
2480;SDS011;57396;48.742;9.128;2023-04-15T06:50:46;8.07;;;5.53;;
2480;SDS011;57396;48.742;9.128;2023-04-15T06:53:13;7.73;;;4.87;;
2480;SDS011;57396;48.742;9.128;2023-04-15T06:55:38;9.93;;;5.13;;
2480;SDS011;57396;48.742;9.128;2023-04-15T06:58:04;10.77;;;5.70;;
2480;SDS011;57396;48.742;9.128;2023-04-15T07:00:30;9.83;;;5.70;;
2480;SDS011;57396;48.742;9.128;2023-04-15T07:02:55;8.63;;;5.20;;
2480;SDS011;57396;48.742;9.128;2023-04-15T07:05:21;12.60;;;5.80;;
2480;SDS011;57396;48.742;9.128;2023-04-15T07:07:46;11.70;;;5.83;;
2480;SDS011;57396;48.742;9.128;2023-04-15T07:10:12;17.30;;;5.40;;
2480;SDS011;57396;48.742;9.128;2023-04-15T07:12:38;9.67;;;4.67;;
2480;SDS011;57396;48.742;9.128;2023-04-15T07:15:04;7.03;;;4.43;;
2480;SDS011;57396;48.742;9.128;2023-04-15T07:17:30;7.90;;;3.97;;
2480;SDS011;57396;48.742;9.128;2023-04-15T07:19:56;8.87;;;4.10;;
2480;SDS011;57396;48.742;9.128;2023-04-15T07:22:21;10.33;;;3.70;;
2480;SDS011;57396;48.742;9.128;2023-04-15T07:24:47;5.73;;;3.80;;
2480;SDS011;57396;48.742;9.128;2023-04-15T07:27:12;11.40;;;3.73;;
2480;SDS011;57396;48.742;9.128;2023-04-15T07:29:38;22.23;;;4.57;;
2480;SDS011;57396;48.742;9.128;2023-04-15T07:32:03;6.40;;;4.00;;
2480;SDS011;57396;48.742;9.128;2023-04-15T07:34:29;7.33;;;3.20;;
2480;SDS011;57396;48.742;9.128;2023-04-15T07:36:54;11.57;;;3.60;;
2480;SDS011;57396;48.742;9.128;2023-04-15T07:39:20;11.80;;;4.63;;
2480;SDS011;57396;48.742;9.128;2023-04-15T07:41:45;7.27;;;4.30;;
2480;SDS011;57396;48.742;9.128;2023-04-15T07:44:11;10.00;;;4.17;;
2480;SDS011;57396;48.742;9.128;2023-04-15T07:46:36;10.90;;;4.63;;
2480;SDS011;57396;48.742;9.128;2023-04-15T07:49:02;9.43;;;4.10;;
2480;SDS011;57396;48.742;9.128;2023-04-15T07:51:28;8.23;;;3.93;;
2480;SDS011;57396;48.742;9.128;2023-04-15T07:53:53;7.27;;;3.60;;
2480;SDS011;57396;48.742;9.128;2023-04-15T07:56:19;9.03;;;2.93;;
2480;SDS011;57396;48.742;9.128;2023-04-15T07:58:44;6.93;;;3.17;;
2480;SDS011;57396;48.742;9.128;2023-04-15T08:01:10;5.80;;;3.10;;
2480;SDS011;57396;48.742;9.128;2023-04-15T08:03:35;13.90;;;5.30;;
2480;SDS011;57396;48.742;9.128;2023-04-15T08:06:01;10.53;;;4.63;;
2480;SDS011;57396;48.742;9.128;2023-04-15T08:08:27;9.20;;;4.83;;
2480;SDS011;57396;48.742;9.128;2023-04-15T08:10:52;9.60;;;4.13;;
2480;SDS011;57396;48.742;9.128;2023-04-15T08:13:18;9.43;;;5.17;;
2480;SDS011;57396;48.742;9.128;2023-04-15T08:15:43;12.60;;;6.40;;
2480;SDS011;57396;48.742;9.128;2023-04-15T08:18:09;12.83;;;6.17;;
2480;SDS011;57396;48.742;9.128;2023-04-15T08:20:35;10.77;;;5.63;;
2480;SDS011;57396;48.742;9.128;2023-04-15T08:23:01;11.60;;;6.60;;
2480;SDS011;57396;48.742;9.128;2023-04-15T08:25:27;6.70;;;4.13;;
2480;SDS011;57396;48.742;9.128;2023-04-15T08:27:56;7.10;;;4.40;;
2480;SDS011;57396;48.742;9.128;2023-04-15T08:30:22;6.23;;;4.20;;
2480;SDS011;57396;48.742;9.128;2023-04-15T08:32:49;11.07;;;4.67;;
2480;SDS011;57396;48.742;9.128;2023-04-15T08:35:15;7.73;;;3.77;;
2480;SDS011;57396;48.742;9.128;2023-04-15T08:37:41;9.90;;;4.20;;
2480;SDS011;57396;48.742;9.128;2023-04-15T08:40:07;8.80;;;3.23;;
2480;SDS011;57396;48.742;9.128;2023-04-15T08:42:36;11.50;;;3.63;;
2480;SDS011;57396;48.742;9.128;2023-04-15T08:45:07;6.10;;;3.37;;
2480;SDS011;57396;48.742;9.128;2023-04-15T08:47:34;5.10;;;2.83;;
2480;SDS011;57396;48.742;9.128;2023-04-15T08:50:01;3.90;;;2.60;;
2480;SDS011;57396;48.742;9.128;2023-04-15T08:52:29;5.73;;;3.10;;
2480;SDS011;57396;48.742;9.128;2023-04-15T08:54:56;4.47;;;2.10;;
2480;SDS011;57396;48.742;9.128;2023-04-15T08:57:27;3.23;;;2.30;;
2480;SDS011;57396;48.742;9.128;2023-04-15T08:59:55;7.73;;;2.53;;
2480;SDS011;57396;48.742;9.128;2023-04-15T09:02:22;3.87;;;2.87;;
2480;SDS011;57396;48.742;9.128;2023-04-15T09:04:48;3.87;;;2.37;;
2480;SDS011;57396;48.742;9.128;2023-04-15T09:07:13;2.37;;;2.10;;
2480;SDS011;57396;48.742;9.128;2023-04-15T09:09:39;2.70;;;2.10;;
2480;SDS011;57396;48.742;9.128;2023-04-15T09:12:06;4.13;;;2.47;;
2480;SDS011;57396;48.742;9.128;2023-04-15T09:14:32;7.90;;;2.90;;
2480;SDS011;57396;48.742;9.128;2023-04-15T09:16:59;3.53;;;2.23;;
2480;SDS011;57396;48.742;9.128;2023-04-15T09:19:26;13.07;;;3.43;;
2480;SDS011;57396;48.742;9.128;2023-04-15T09:21:52;21.03;;;4.03;;
2480;SDS011;57396;48.742;9.128;2023-04-15T09:24:18;4.82;;;2.60;;
2480;SDS011;57396;48.742;9.128;2023-04-15T09:26:44;5.50;;;2.40;;
2480;SDS011;57396;48.742;9.128;2023-04-15T09:29:10;4.17;;;2.30;;
2480;SDS011;57396;48.742;9.128;2023-04-15T09:31:39;4.43;;;2.57;;
2480;SDS011;57396;48.742;9.128;2023-04-15T09:34:05;4.20;;;2.20;;
2480;SDS011;57396;48.742;9.128;2023-04-15T09:39:11;8.37;;;2.70;;
2480;SDS011;57396;48.742;9.128;2023-04-15T09:41:37;6.97;;;2.63;;
2480;SDS011;57396;48.742;9.128;2023-04-15T09:44:03;5.03;;;2.97;;
2480;SDS011;57396;48.742;9.128;2023-04-15T09:46:41;4.00;;;2.50;;
2480;SDS011;57396;48.742;9.128;2023-04-15T09:49:07;4.63;;;2.53;;
2480;SDS011;57396;48.742;9.128;2023-04-15T09:51:34;6.00;;;2.87;;
2480;SDS011;57396;48.742;9.128;2023-04-15T09:54:00;6.30;;;2.90;;
2480;SDS011;57396;48.742;9.128;2023-04-15T09:56:31;3.33;;;3.03;;
2480;SDS011;57396;48.742;9.128;2023-04-15T09:58:58;8.73;;;3.97;;
2480;SDS011;57396;48.742;9.128;2023-04-15T10:01:24;5.23;;;3.87;;
2480;SDS011;57396;48.742;9.128;2023-04-15T10:03:49;11.47;;;8.80;;
2480;SDS011;57396;48.742;9.128;2023-04-15T10:06:16;5.10;;;3.90;;
2480;SDS011;57396;48.742;9.128;2023-04-15T10:08:42;7.00;;;2.70;;
2480;SDS011;57396;48.742;9.128;2023-04-15T10:11:07;4.70;;;2.50;;
2480;SDS011;57396;48.742;9.128;2023-04-15T10:13:33;4.63;;;2.50;;
2480;SDS011;57396;48.742;9.128;2023-04-15T10:16:10;5.00;;;2.53;;
2480;SDS011;57396;48.742;9.128;2023-04-15T10:18:39;4.10;;;2.30;;
2480;SDS011;57396;48.742;9.128;2023-04-15T10:21:07;5.40;;;2.53;;
2480;SDS011;57396;48.742;9.128;2023-04-15T10:23:33;7.40;;;2.50;;
2480;SDS011;57396;48.742;9.128;2023-04-15T10:25:59;5.43;;;2.70;;
2480;SDS011;57396;48.742;9.128;2023-04-15T10:28:25;8.50;;;3.00;;
2480;SDS011;57396;48.742;9.128;2023-04-15T10:30:51;4.87;;;3.03;;
2480;SDS011;57396;48.742;9.128;2023-04-15T10:33:19;7.37;;;3.17;;
2480;SDS011;57396;48.742;9.128;2023-04-15T10:35:47;9.55;;;3.70;;
2480;SDS011;57396;48.742;9.128;2023-04-15T10:43:51;4.93;;;2.50;;
2480;SDS011;57396;48.742;9.128;2023-04-15T10:48:51;7.47;;;3.00;;
2480;SDS011;57396;48.742;9.128;2023-04-15T10:51:27;5.20;;;3.47;;
2480;SDS011;57396;48.742;9.128;2023-04-15T10:54:00;3.50;;;3.00;;
2480;SDS011;57396;48.742;9.128;2023-04-15T10:56:29;7.33;;;3.77;;
2480;SDS011;57396;48.742;9.128;2023-04-15T10:58:57;6.67;;;3.77;;
2480;SDS011;57396;48.742;9.128;2023-04-15T11:01:26;5.00;;;3.03;;
2480;SDS011;57396;48.742;9.128;2023-04-15T11:04:14;4.75;;;2.80;;
2480;SDS011;57396;48.742;9.128;2023-04-15T11:06:43;7.70;;;3.57;;
2480;SDS011;57396;48.742;9.128;2023-04-15T11:09:11;5.63;;;3.20;;
2480;SDS011;57396;48.742;9.128;2023-04-15T11:12:05;6.07;;;3.57;;
2480;SDS011;57396;48.742;9.128;2023-04-15T11:14:38;4.60;;;3.33;;
2480;SDS011;57396;48.742;9.128;2023-04-15T11:17:04;6.33;;;3.30;;
2480;SDS011;57396;48.742;9.128;2023-04-15T11:19:36;7.17;;;4.90;;
2480;SDS011;57396;48.742;9.128;2023-04-15T11:22:06;5.97;;;3.30;;
2480;SDS011;57396;48.742;9.128;2023-04-15T11:24:33;7.60;;;2.97;;
2480;SDS011;57396;48.742;9.128;2023-04-15T11:26:58;4.90;;;3.30;;
2480;SDS011;57396;48.742;9.128;2023-04-15T11:29:30;7.20;;;3.40;;
2480;SDS011;57396;48.742;9.128;2023-04-15T11:32:08;10.57;;;2.80;;
2480;SDS011;57396;48.742;9.128;2023-04-15T11:34:33;4.40;;;2.90;;
2480;SDS011;57396;48.742;9.128;2023-04-15T11:37:02;8.10;;;3.87;;
2480;SDS011;57396;48.742;9.128;2023-04-15T11:39:28;7.03;;;2.90;;
2480;SDS011;57396;48.742;9.128;2023-04-15T11:41:54;6.40;;;3.03;;
2480;SDS011;57396;48.742;9.128;2023-04-15T11:44:19;8.57;;;4.33;;
2480;SDS011;57396;48.742;9.128;2023-04-15T11:46:45;6.67;;;3.57;;
2480;SDS011;57396;48.742;9.128;2023-04-15T11:49:10;6.63;;;3.47;;
2480;SDS011;57396;48.742;9.128;2023-04-15T11:51:35;6.83;;;3.37;;
2480;SDS011;57396;48.742;9.128;2023-04-15T11:54:01;7.20;;;3.60;;
2480;SDS011;57396;48.742;9.128;2023-04-15T11:56:27;5.13;;;2.80;;
2480;SDS011;57396;48.742;9.128;2023-04-15T11:58:56;3.60;;;2.60;;
2480;SDS011;57396;48.742;9.128;2023-04-15T12:01:33;4.40;;;3.00;;
2480;SDS011;57396;48.742;9.128;2023-04-15T12:03:59;10.40;;;3.90;;
2480;SDS011;57396;48.742;9.128;2023-04-15T12:06:30;4.37;;;2.97;;
2480;SDS011;57396;48.742;9.128;2023-04-15T12:08:58;8.90;;;3.33;;
2480;SDS011;57396;48.742;9.128;2023-04-15T12:13:52;10.30;;;3.20;;
2480;SDS011;57396;48.742;9.128;2023-04-15T12:16:19;6.63;;;3.27;;
2480;SDS011;57396;48.742;9.128;2023-04-15T12:18:45;4.43;;;2.83;;
2480;SDS011;57396;48.742;9.128;2023-04-15T12:21:11;7.70;;;3.47;;
2480;SDS011;57396;48.742;9.128;2023-04-15T12:23:38;9.50;;;3.50;;
2480;SDS011;57396;48.742;9.128;2023-04-15T12:26:04;7.60;;;3.33;;
2480;SDS011;57396;48.742;9.128;2023-04-15T12:28:31;5.80;;;3.53;;
2480;SDS011;57396;48.742;9.128;2023-04-15T12:30:56;4.43;;;3.07;;
2480;SDS011;57396;48.742;9.128;2023-04-15T12:33:22;5.27;;;3.23;;
2480;SDS011;57396;48.742;9.128;2023-04-15T12:35:47;6.87;;;3.30;;
2480;SDS011;57396;48.742;9.128;2023-04-15T12:38:13;4.20;;;2.87;;
2480;SDS011;57396;48.742;9.128;2023-04-15T12:40:38;9.27;;;6.80;;
2480;SDS011;57396;48.742;9.128;2023-04-15T12:43:04;12.30;;;6.23;;
2480;SDS011;57396;48.742;9.128;2023-04-15T12:45:29;4.63;;;3.30;;
2480;SDS011;57396;48.742;9.128;2023-04-15T12:47:54;4.63;;;3.20;;
2480;SDS011;57396;48.742;9.128;2023-04-15T12:50:20;4.90;;;2.80;;
2480;SDS011;57396;48.742;9.128;2023-04-15T12:52:46;5.27;;;3.80;;
2480;SDS011;57396;48.742;9.128;2023-04-15T12:55:11;4.93;;;3.00;;
2480;SDS011;57396;48.742;9.128;2023-04-15T12:57:37;6.50;;;3.20;;
2480;SDS011;57396;48.742;9.128;2023-04-15T13:00:02;5.40;;;3.10;;
2480;SDS011;57396;48.742;9.128;2023-04-15T13:02:30;6.20;;;3.73;;
2480;SDS011;57396;48.742;9.128;2023-04-15T13:04:56;4.10;;;2.83;;
2480;SDS011;57396;48.742;9.128;2023-04-15T13:07:21;4.27;;;2.73;;
2480;SDS011;57396;48.742;9.128;2023-04-15T13:09:47;5.23;;;3.10;;
2480;SDS011;57396;48.742;9.128;2023-04-15T13:12:12;4.73;;;2.70;;
2480;SDS011;57396;48.742;9.128;2023-04-15T13:14:39;4.37;;;2.83;;
2480;SDS011;57396;48.742;9.128;2023-04-15T13:17:04;2.70;;;2.50;;
2480;SDS011;57396;48.742;9.128;2023-04-15T13:19:34;3.80;;;3.00;;
2480;SDS011;57396;48.742;9.128;2023-04-15T13:22:01;3.87;;;2.87;;
2480;SDS011;57396;48.742;9.128;2023-04-15T13:24:26;2.80;;;2.40;;
2480;SDS011;57396;48.742;9.128;2023-04-15T13:26:51;4.60;;;2.67;;
2480;SDS011;57396;48.742;9.128;2023-04-15T13:29:18;4.00;;;2.73;;
2480;SDS011;57396;48.742;9.128;2023-04-15T13:31:43;3.80;;;2.70;;
2480;SDS011;57396;48.742;9.128;2023-04-15T13:34:08;3.73;;;2.63;;
2480;SDS011;57396;48.742;9.128;2023-04-15T13:36:34;4.80;;;2.70;;
2480;SDS011;57396;48.742;9.128;2023-04-15T13:38:59;4.37;;;2.07;;
2480;SDS011;57396;48.742;9.128;2023-04-15T13:41:25;4.40;;;2.20;;
2480;SDS011;57396;48.742;9.128;2023-04-15T13:43:51;5.17;;;2.60;;
2480;SDS011;57396;48.742;9.128;2023-04-15T13:46:16;4.03;;;2.20;;
2480;SDS011;57396;48.742;9.128;2023-04-15T13:48:41;4.37;;;2.23;;
2480;SDS011;57396;48.742;9.128;2023-04-15T13:51:07;6.07;;;2.97;;
2480;SDS011;57396;48.742;9.128;2023-04-15T13:53:32;3.57;;;2.30;;
2480;SDS011;57396;48.742;9.128;2023-04-15T13:55:58;3.50;;;2.30;;
2480;SDS011;57396;48.742;9.128;2023-04-15T13:58:23;4.27;;;1.90;;
2480;SDS011;57396;48.742;9.128;2023-04-15T14:00:49;3.37;;;2.57;;
2480;SDS011;57396;48.742;9.128;2023-04-15T14:03:14;2.17;;;1.97;;
2480;SDS011;57396;48.742;9.128;2023-04-15T14:05:40;2.50;;;2.20;;
2480;SDS011;57396;48.742;9.128;2023-04-15T14:08:05;3.77;;;2.00;;
2480;SDS011;57396;48.742;9.128;2023-04-15T14:10:31;5.33;;;2.20;;
2480;SDS011;57396;48.742;9.128;2023-04-15T14:12:56;4.60;;;1.97;;
2480;SDS011;57396;48.742;9.128;2023-04-15T14:15:22;4.27;;;1.80;;
2480;SDS011;57396;48.742;9.128;2023-04-15T14:17:47;3.83;;;1.90;;
2480;SDS011;57396;48.742;9.128;2023-04-15T14:20:13;4.17;;;1.40;;
2480;SDS011;57396;48.742;9.128;2023-04-15T14:22:38;1.80;;;1.30;;
2480;SDS011;57396;48.742;9.128;2023-04-15T14:25:04;3.67;;;1.40;;
2480;SDS011;57396;48.742;9.128;2023-04-15T14:27:30;5.10;;;1.47;;
2480;SDS011;57396;48.742;9.128;2023-04-15T14:29:56;2.67;;;1.53;;
2480;SDS011;57396;48.742;9.128;2023-04-15T14:32:23;2.27;;;2.03;;
2480;SDS011;57396;48.742;9.128;2023-04-15T14:34:50;2.80;;;2.00;;
2480;SDS011;57396;48.742;9.128;2023-04-15T14:37:15;3.43;;;2.37;;
2480;SDS011;57396;48.742;9.128;2023-04-15T14:39:41;5.23;;;2.30;;
2480;SDS011;57396;48.742;9.128;2023-04-15T14:42:06;2.43;;;1.67;;
2480;SDS011;57396;48.742;9.128;2023-04-15T14:44:31;2.10;;;1.67;;
2480;SDS011;57396;48.742;9.128;2023-04-15T14:46:57;4.40;;;1.63;;
2480;SDS011;57396;48.742;9.128;2023-04-15T14:49:22;3.77;;;1.90;;
2480;SDS011;57396;48.742;9.128;2023-04-15T14:51:48;2.53;;;1.87;;
2480;SDS011;57396;48.742;9.128;2023-04-15T14:54:13;2.80;;;1.83;;
2480;SDS011;57396;48.742;9.128;2023-04-15T14:56:39;3.20;;;1.90;;
2480;SDS011;57396;48.742;9.128;2023-04-15T14:59:05;2.30;;;1.73;;
2480;SDS011;57396;48.742;9.128;2023-04-15T15:01:30;3.90;;;1.90;;
2480;SDS011;57396;48.742;9.128;2023-04-15T15:03:56;6.60;;;2.17;;
2480;SDS011;57396;48.742;9.128;2023-04-15T15:06:21;4.43;;;2.30;;